createdAt,value
2022-11-08T00:00:39.487Z,7.69
2022-11-08T00:01:39.548Z,7.68
2022-11-08T00:02:39.579Z,7.66
2022-11-08T00:03:39.449Z,7.66
2022-11-08T00:04:39.450Z,7.69
2022-11-08T00:05:39.438Z,7.73
2022-11-08T00:06:39.408Z,7.74
2022-11-08T00:07:39.406Z,7.73
2022-11-08T00:08:39.416Z,7.77
2022-11-08T00:09:39.386Z,7.76
2022-11-08T00:10:39.395Z,7.77
2022-11-08T00:11:39.377Z,7.78
2022-11-08T00:12:39.354Z,7.81
2022-11-08T00:13:39.331Z,7.76
2022-11-08T00:14:39.315Z,7.83
2022-11-08T00:15:39.383Z,7.80
2022-11-08T00:16:39.300Z,7.80
2022-11-08T00:17:39.281Z,7.84
2022-11-08T00:18:39.263Z,7.91
2022-11-08T00:19:39.231Z,7.84
2022-11-08T00:20:39.250Z,7.84
2022-11-08T00:21:39.203Z,7.86
2022-11-08T00:22:39.215Z,7.87
2022-11-08T00:23:39.184Z,7.86
2022-11-08T00:24:39.175Z,7.84
2022-11-08T00:25:39.183Z,7.83
2022-11-08T00:26:39.143Z,7.81
2022-11-08T00:27:39.145Z,7.80
2022-11-08T00:28:39.134Z,7.77
2022-11-08T00:29:39.096Z,7.74
2022-11-08T00:30:39.113Z,7.78
2022-11-08T00:31:39.077Z,7.77
2022-11-08T00:32:39.064Z,7.74
2022-11-08T00:33:39.047Z,7.68
2022-11-08T00:34:39.035Z,7.69
2022-11-08T00:35:39.036Z,7.68
2022-11-08T00:36:39.020Z,7.64
2022-11-08T00:37:39.011Z,7.69
2022-11-08T00:38:38.978Z,7.62
2022-11-08T00:39:38.959Z,7.60
2022-11-08T00:40:38.957Z,7.61
2022-11-08T00:41:38.963Z,7.57
2022-11-08T00:42:38.926Z,7.50
2022-11-08T00:43:38.911Z,7.47
2022-11-08T00:44:38.895Z,7.44
2022-11-08T00:45:38.876Z,7.42
2022-11-08T00:46:38.913Z,7.36
2022-11-08T00:47:38.876Z,7.33
2022-11-08T00:48:38.866Z,7.25
2022-11-08T00:49:38.841Z,7.21
2022-11-08T00:50:38.834Z,7.08
2022-11-08T00:51:38.822Z,7.10
2022-11-08T00:52:38.807Z,7.07
2022-11-08T00:53:38.795Z,7.08
2022-11-08T00:54:38.774Z,7.06
2022-11-08T00:55:38.751Z,7.04
2022-11-08T00:56:38.787Z,6.99
2022-11-08T00:57:53.923Z,6.99
2022-11-08T00:58:39.732Z,6.92
2022-11-08T00:59:38.722Z,6.91
2022-11-08T01:00:38.705Z,6.86
2022-11-08T01:01:38.836Z,6.79
2022-11-08T01:02:38.747Z,6.71
2022-11-08T01:03:38.655Z,6.67
2022-11-08T01:04:38.654Z,6.49
2022-11-08T01:05:38.657Z,6.49
2022-11-08T01:06:38.631Z,6.32
2022-11-08T01:07:38.641Z,6.34
2022-11-08T01:08:38.624Z,6.32
2022-11-08T01:09:38.607Z,6.18
2022-11-08T01:10:38.615Z,6.09
2022-11-08T01:11:38.605Z,6.03
2022-11-08T01:12:38.615Z,6.00
2022-11-08T01:13:38.597Z,5.90
2022-11-08T01:14:38.587Z,5.91
2022-11-08T01:15:38.703Z,5.91
2022-11-08T01:16:38.576Z,5.91
2022-11-08T01:17:38.600Z,5.88
2022-11-08T01:18:38.607Z,5.82
2022-11-08T01:19:38.579Z,5.73
2022-11-08T01:20:38.577Z,5.69
2022-11-08T01:21:38.575Z,5.57
2022-11-08T01:22:38.600Z,5.62
2022-11-08T01:23:38.580Z,5.62
2022-11-08T01:24:38.569Z,5.57
2022-11-08T01:25:38.559Z,5.44
2022-11-08T01:26:38.559Z,5.41
2022-11-08T01:27:38.550Z,5.34
2022-11-08T01:28:45.584Z,5.27
2022-11-08T01:29:38.535Z,5.19
2022-11-08T01:30:38.540Z,5.16
2022-11-08T01:31:38.538Z,5.11
2022-11-08T01:32:38.534Z,5.11
2022-11-08T01:33:38.537Z,5.04
2022-11-08T01:34:38.552Z,4.94
2022-11-08T01:35:38.537Z,4.98
2022-11-08T01:36:38.526Z,4.89
2022-11-08T01:37:38.526Z,4.93
2022-11-08T01:38:38.536Z,4.78
2022-11-08T01:39:38.536Z,4.77
2022-11-08T01:40:38.538Z,4.64
2022-11-08T01:41:38.536Z,4.60
2022-11-08T01:42:38.528Z,4.54
2022-11-08T01:43:38.540Z,4.48
2022-11-08T01:44:38.570Z,4.48
2022-11-08T01:45:38.548Z,4.45
2022-11-08T01:46:38.569Z,4.39
2022-11-08T01:47:38.570Z,4.30
2022-11-08T01:48:38.589Z,4.24
2022-11-08T01:49:38.588Z,4.18
2022-11-08T01:50:38.600Z,4.18
2022-11-08T01:51:38.609Z,4.17
2022-11-08T01:52:38.621Z,4.13
2022-11-08T01:53:38.626Z,4.08
2022-11-08T01:54:38.669Z,4.16
2022-11-08T01:55:38.658Z,4.06
2022-11-08T01:56:38.681Z,4.08
2022-11-08T01:57:38.698Z,4.05
2022-11-08T01:58:38.721Z,4.03
2022-11-08T01:59:38.740Z,4.02
2022-11-08T02:00:38.751Z,4.08
2022-11-08T02:01:38.868Z,3.99
2022-11-08T02:02:38.831Z,4.00
2022-11-08T02:03:38.802Z,3.98
2022-11-08T02:04:38.832Z,3.91
2022-11-08T02:05:38.834Z,3.80
2022-11-08T02:06:38.866Z,3.76
2022-11-08T02:07:38.870Z,3.69
2022-11-08T02:08:38.904Z,3.67
2022-11-08T02:09:38.924Z,3.69
2022-11-08T02:10:38.934Z,3.70
2022-11-08T02:11:38.943Z,3.78
2022-11-08T02:12:38.974Z,3.66
2022-11-08T02:13:38.993Z,3.67
2022-11-08T02:14:39.026Z,3.67
2022-11-08T02:15:39.014Z,3.62
2022-11-08T02:16:39.033Z,3.49
2022-11-08T02:17:39.061Z,3.49
2022-11-08T02:18:39.097Z,3.46
2022-11-08T02:19:39.118Z,3.51
2022-11-08T02:20:39.121Z,3.46
2022-11-08T02:21:39.144Z,3.45
2022-11-08T02:22:39.164Z,3.46
2022-11-08T02:23:39.183Z,3.42
2022-11-08T02:24:39.237Z,3.41
2022-11-08T02:25:39.243Z,3.45
2022-11-08T02:26:39.265Z,3.51
2022-11-08T02:27:39.304Z,3.62
2022-11-08T02:28:39.333Z,3.48
2022-11-08T02:29:39.345Z,3.52
2022-11-08T02:30:39.371Z,3.44
2022-11-08T02:31:39.394Z,3.37
2022-11-08T02:32:39.425Z,3.33
2022-11-08T02:33:39.453Z,3.32
2022-11-08T02:34:39.487Z,3.30
2022-11-08T02:35:39.507Z,3.26
2022-11-08T02:36:39.546Z,3.29
2022-11-08T02:37:39.574Z,3.27
2022-11-08T02:38:39.597Z,3.30
2022-11-08T02:39:39.638Z,3.26
2022-11-08T02:40:39.647Z,3.36
2022-11-08T02:41:39.657Z,3.26
2022-11-08T02:42:39.708Z,3.29
2022-11-08T02:43:39.727Z,3.29
2022-11-08T02:44:39.767Z,3.22
2022-11-08T02:45:39.789Z,3.11
2022-11-08T02:46:39.818Z,3.02
2022-11-08T02:47:39.840Z,2.97
2022-11-08T02:48:39.885Z,3.00
2022-11-08T02:49:39.918Z,2.93
2022-11-08T02:51:00.959Z,2.93
2022-11-08T02:51:39.971Z,2.89
2022-11-08T02:52:40.002Z,2.84
2022-11-08T02:53:40.036Z,2.86
2022-11-08T02:54:40.072Z,2.82
2022-11-08T02:55:40.090Z,2.72
2022-11-08T02:56:40.103Z,2.73
2022-11-08T02:57:40.133Z,2.75
2022-11-08T02:58:40.162Z,2.76
2022-11-08T02:59:40.201Z,2.68
2022-11-08T03:00:40.213Z,2.63
2022-11-08T03:01:40.331Z,2.61
2022-11-08T03:02:40.309Z,2.63
2022-11-08T03:03:40.294Z,2.60
2022-11-08T03:04:40.361Z,2.55
2022-11-08T03:05:40.352Z,2.61
2022-11-08T03:06:40.373Z,2.54
2022-11-08T03:07:40.400Z,2.54
2022-11-08T03:08:40.422Z,2.51
2022-11-08T03:09:40.463Z,2.51
2022-11-08T03:10:40.470Z,2.50
2022-11-08T03:11:40.504Z,2.51
2022-11-08T03:12:40.531Z,2.51
2022-11-08T03:13:40.564Z,2.50
2022-11-08T03:14:40.614Z,2.48
2022-11-08T03:15:40.636Z,2.45
2022-11-08T03:16:40.652Z,2.42
2022-11-08T03:17:40.683Z,2.45
2022-11-08T03:18:40.715Z,2.43
2022-11-08T03:19:40.765Z,2.37
2022-11-08T03:20:40.842Z,2.40
2022-11-08T03:21:40.824Z,2.40
2022-11-08T03:22:40.845Z,2.33
2022-11-08T03:23:40.964Z,2.33
2022-11-08T03:24:40.926Z,2.32
2022-11-08T03:25:40.955Z,2.28
2022-11-08T03:26:40.986Z,2.24
2022-11-08T03:27:41.026Z,2.19
2022-11-08T03:28:41.081Z,2.19
2022-11-08T03:29:41.117Z,2.14
2022-11-08T03:30:41.141Z,2.10
2022-11-08T03:31:41.179Z,2.17
2022-11-08T03:32:41.215Z,2.15
2022-11-08T03:33:41.237Z,2.17
2022-11-08T03:34:41.294Z,2.12
2022-11-08T03:35:41.307Z,2.10
2022-11-08T03:36:41.386Z,2.07
2022-11-08T03:37:41.376Z,2.07
2022-11-08T03:38:41.408Z,2.11
2022-11-08T03:39:41.526Z,2.11
2022-11-08T03:40:41.467Z,2.11
2022-11-08T03:41:41.506Z,2.17
2022-11-08T03:42:41.536Z,2.12
2022-11-08T03:43:41.579Z,2.14
2022-11-08T03:44:41.616Z,2.11
2022-11-08T03:45:41.647Z,2.12
2022-11-08T03:46:41.669Z,2.07
2022-11-08T03:47:41.708Z,2.06
2022-11-08T03:48:41.742Z,2.14
2022-11-08T03:49:41.781Z,2.10
2022-11-08T03:50:41.809Z,2.03
2022-11-08T03:51:41.840Z,2.01
2022-11-08T03:52:41.878Z,2.00
2022-11-08T03:53:41.900Z,1.93
2022-11-08T03:54:41.960Z,1.91
2022-11-08T03:55:41.981Z,1.89
2022-11-08T03:56:42.012Z,1.84
2022-11-08T03:57:42.042Z,1.84
2022-11-08T03:58:42.092Z,1.84
2022-11-08T03:59:42.132Z,1.78
2022-11-08T04:00:42.163Z,1.77
2022-11-08T04:01:42.360Z,1.78
2022-11-08T04:02:42.305Z,1.75
2022-11-08T04:03:42.263Z,1.73
2022-11-08T04:04:42.324Z,1.69
2022-11-08T04:05:42.333Z,1.73
2022-11-08T04:06:42.381Z,1.73
2022-11-08T04:07:42.412Z,1.73
2022-11-08T04:08:42.464Z,1.74
2022-11-08T04:09:42.505Z,1.77
2022-11-08T04:10:42.536Z,1.71
2022-11-08T04:11:42.563Z,1.73
2022-11-08T04:12:42.613Z,1.66
2022-11-08T04:13:42.644Z,1.64
2022-11-08T04:14:42.713Z,1.71
2022-11-08T04:15:42.732Z,1.64
2022-11-08T04:16:42.811Z,1.64
2022-11-08T04:17:42.804Z,1.73
2022-11-08T04:18:42.854Z,1.71
2022-11-08T04:19:42.895Z,1.71
2022-11-08T04:20:42.933Z,1.74
2022-11-08T04:21:42.967Z,1.71
2022-11-08T04:22:43.014Z,1.73
2022-11-08T04:23:43.047Z,1.69
2022-11-08T04:24:43.112Z,1.63
2022-11-08T04:25:43.126Z,1.59
2022-11-08T04:26:43.167Z,1.56
2022-11-08T04:27:43.208Z,1.53
2022-11-08T04:28:43.262Z,1.52
2022-11-08T04:29:43.297Z,1.44
2022-11-08T04:30:43.327Z,1.53
2022-11-08T04:31:43.367Z,1.46
2022-11-08T04:32:43.415Z,1.45
2022-11-08T04:33:43.452Z,1.41
2022-11-08T04:34:43.508Z,1.41
2022-11-08T04:35:43.519Z,1.42
2022-11-08T04:36:43.569Z,1.42
2022-11-08T04:37:43.608Z,1.44
2022-11-08T04:38:43.657Z,1.52
2022-11-08T04:39:43.706Z,1.41
2022-11-08T04:40:43.736Z,1.41
2022-11-08T04:41:43.776Z,1.41
2022-11-08T04:42:43.824Z,1.44
2022-11-08T04:43:43.859Z,1.38
2022-11-08T04:44:43.929Z,1.36
2022-11-08T04:45:43.951Z,1.28
2022-11-08T04:46:44.008Z,1.23
2022-11-08T04:47:48.162Z,1.30
2022-11-08T04:48:44.095Z,1.18
2022-11-08T04:49:44.140Z,1.20
2022-11-08T04:50:44.181Z,1.17
2022-11-08T04:51:44.212Z,1.20
2022-11-08T04:52:44.269Z,1.18
2022-11-08T04:53:44.314Z,1.17
2022-11-08T04:54:44.387Z,1.21
2022-11-08T04:55:44.411Z,1.23
2022-11-08T04:56:44.471Z,1.16
2022-11-08T04:57:44.513Z,1.13
2022-11-08T04:58:44.563Z,1.09
2022-11-08T04:59:44.621Z,1.12
2022-11-08T05:00:44.663Z,1.13
2022-11-08T05:01:44.879Z,1.16
2022-11-08T05:02:44.804Z,1.12
2022-11-08T05:03:44.804Z,1.09
2022-11-08T05:04:44.881Z,1.06
2022-11-08T05:05:44.903Z,1.05
2022-11-08T05:06:44.952Z,1.05
2022-11-08T05:07:44.995Z,1.10
2022-11-08T05:08:45.045Z,1.10
2022-11-08T05:09:45.095Z,1.03
2022-11-08T05:10:45.124Z,1.05
2022-11-08T05:11:45.173Z,0.98
2022-11-08T05:12:45.226Z,0.91
2022-11-08T05:13:45.279Z,0.94
2022-11-08T05:14:45.345Z,0.92
2022-11-08T05:15:45.366Z,0.90
2022-11-08T05:16:45.416Z,0.94
2022-11-08T05:17:45.455Z,0.94
2022-11-08T05:18:45.518Z,0.96
2022-11-08T05:19:45.555Z,0.91
2022-11-08T05:20:45.595Z,0.87
2022-11-08T05:21:45.626Z,0.85
2022-11-08T05:22:45.684Z,0.87
2022-11-08T05:23:45.726Z,0.88
2022-11-08T05:24:45.785Z,0.90
2022-11-08T05:25:45.817Z,0.87
2022-11-08T05:26:45.867Z,0.87
2022-11-08T05:27:45.907Z,0.88
2022-11-08T05:28:45.966Z,0.85
2022-11-08T05:29:46.027Z,0.85
2022-11-08T05:30:46.068Z,0.84
2022-11-08T05:31:46.114Z,0.78
2022-11-08T05:32:46.168Z,0.74
2022-11-08T05:33:46.208Z,0.74
2022-11-08T05:34:46.279Z,0.72
2022-11-08T05:35:46.311Z,0.72
2022-11-08T05:36:46.361Z,0.73
2022-11-08T05:37:46.399Z,0.73
2022-11-08T05:38:46.449Z,0.72
2022-11-08T05:39:46.520Z,0.70
2022-11-08T05:40:46.550Z,0.64
2022-11-08T05:41:46.589Z,0.63
2022-11-08T05:42:46.654Z,0.62
2022-11-08T05:43:46.690Z,0.55
2022-11-08T05:44:46.758Z,0.60
2022-11-08T05:45:46.791Z,0.56
2022-11-08T05:46:46.858Z,0.53
2022-11-08T05:47:46.881Z,0.53
2022-11-08T05:48:46.968Z,0.51
2022-11-08T05:49:46.982Z,0.50
2022-11-08T05:50:47.019Z,0.47
2022-11-08T05:51:47.060Z,0.55
2022-11-08T05:52:47.109Z,0.53
2022-11-08T05:53:47.178Z,0.50
2022-11-08T05:54:47.203Z,0.53
2022-11-08T05:55:47.223Z,0.53
2022-11-08T05:56:47.273Z,0.53
2022-11-08T05:57:47.304Z,0.55
2022-11-08T05:58:47.351Z,0.60
2022-11-08T05:59:47.400Z,0.56
2022-11-08T06:00:47.436Z,0.48
2022-11-08T06:01:47.570Z,0.55
2022-11-08T06:02:47.577Z,0.47
2022-11-08T06:03:47.564Z,0.48
2022-11-08T06:04:47.635Z,0.44
2022-11-08T06:05:47.664Z,0.44
2022-11-08T06:06:47.715Z,0.45
2022-11-08T06:07:47.754Z,0.44
2022-11-08T06:08:50.750Z,0.43
2022-11-08T06:09:47.863Z,0.43
2022-11-08T06:10:47.895Z,0.40
2022-11-08T06:11:47.937Z,0.45
2022-11-08T06:12:47.988Z,0.44
2022-11-08T06:13:48.027Z,0.37
2022-11-08T06:14:48.108Z,0.36
2022-11-08T06:15:48.136Z,0.37
2022-11-08T06:16:48.196Z,0.35
2022-11-08T06:17:48.246Z,0.36
2022-11-08T06:18:48.307Z,0.36
2022-11-08T06:19:48.357Z,0.33
2022-11-08T06:20:48.406Z,0.37
2022-11-08T06:21:48.444Z,0.35
2022-11-08T06:22:48.487Z,0.36
2022-11-08T06:23:48.536Z,0.37
2022-11-08T06:24:48.607Z,0.41
2022-11-08T06:25:48.637Z,0.45
2022-11-08T06:26:48.698Z,0.44
2022-11-08T06:27:48.738Z,0.41
2022-11-08T06:28:48.798Z,0.48
2022-11-08T06:29:48.857Z,0.48
2022-11-08T06:30:48.906Z,0.45
2022-11-08T06:31:48.956Z,0.48
2022-11-08T06:32:49.010Z,0.43
2022-11-08T06:33:49.061Z,0.47
2022-11-08T06:34:49.149Z,0.41
2022-11-08T06:35:49.179Z,0.50
2022-11-08T06:36:49.242Z,0.47
2022-11-08T06:37:49.289Z,0.48
2022-11-08T06:38:49.347Z,0.45
2022-11-08T06:39:49.409Z,0.48
2022-11-08T06:40:49.450Z,0.48
2022-11-08T06:41:49.501Z,0.55
2022-11-08T06:42:49.561Z,0.50
2022-11-08T06:43:49.601Z,0.53
2022-11-08T06:44:49.671Z,0.62
2022-11-08T06:45:49.711Z,0.55
2022-11-08T06:46:49.760Z,0.62
2022-11-08T06:47:49.810Z,0.59
2022-11-08T06:48:49.871Z,0.56
2022-11-08T06:49:49.931Z,0.55
2022-11-08T06:50:49.981Z,0.62
2022-11-08T06:51:50.023Z,0.59
2022-11-08T06:52:50.094Z,0.59
2022-11-08T06:53:50.132Z,0.56
2022-11-08T06:54:50.209Z,0.62
2022-11-08T06:55:50.243Z,0.63
2022-11-08T06:56:50.302Z,0.62
2022-11-08T06:57:50.353Z,0.56
2022-11-08T06:58:50.421Z,0.63
2022-11-08T06:59:50.484Z,0.64
2022-11-08T07:00:50.527Z,0.66
2022-11-08T07:01:50.681Z,0.69
2022-11-08T07:02:50.701Z,0.70
2022-11-08T07:03:50.666Z,0.81
2022-11-08T07:04:50.748Z,0.78
2022-11-08T07:05:50.781Z,0.80
2022-11-08T07:06:50.846Z,0.76
2022-11-08T07:07:50.895Z,0.84
2022-11-08T07:08:51.128Z,0.87
2022-11-08T07:09:51.024Z,0.82
2022-11-08T07:10:51.084Z,0.87
2022-11-08T07:11:51.114Z,0.85
2022-11-08T07:12:51.175Z,0.87
2022-11-08T07:13:51.225Z,0.81
2022-11-08T07:14:51.293Z,0.84
2022-11-08T07:15:51.332Z,0.87
2022-11-08T07:16:51.387Z,0.88
2022-11-08T07:17:51.483Z,0.91
2022-11-08T07:18:51.598Z,0.94
2022-11-08T07:19:51.547Z,0.90
2022-11-08T07:20:51.590Z,0.99
2022-11-08T07:21:51.627Z,1.02
2022-11-08T07:22:51.685Z,1.03
2022-11-08T07:23:51.730Z,1.05
2022-11-08T07:24:51.806Z,1.10
2022-11-08T07:25:51.828Z,1.08
2022-11-08T07:26:51.895Z,1.12
2022-11-08T07:27:51.947Z,1.17
2022-11-08T07:28:59.044Z,1.26
2022-11-08T07:29:52.064Z,1.28
2022-11-08T07:30:52.111Z,1.38
2022-11-08T07:31:52.162Z,1.35
2022-11-08T07:32:52.214Z,1.39
2022-11-08T07:33:52.264Z,1.49
2022-11-08T07:34:52.344Z,1.48
2022-11-08T07:35:52.366Z,1.53
2022-11-08T07:36:52.430Z,1.53
2022-11-08T07:37:52.474Z,1.60
2022-11-08T07:38:52.588Z,1.63
2022-11-08T07:39:52.598Z,1.64
2022-11-08T07:40:52.634Z,1.74
2022-11-08T07:41:52.676Z,1.75
2022-11-08T07:43:11.582Z,1.85
2022-11-08T07:43:53.778Z,1.85
2022-11-08T07:44:52.848Z,1.87
2022-11-08T07:45:52.877Z,1.92
2022-11-08T07:46:52.935Z,2.04
2022-11-08T07:47:52.983Z,2.07
2022-11-08T07:48:53.025Z,2.17
2022-11-08T07:49:53.099Z,2.17
2022-11-08T07:50:53.120Z,2.18
2022-11-08T07:51:53.166Z,2.22
2022-11-08T07:52:53.228Z,2.30
2022-11-08T07:53:53.265Z,2.33
2022-11-08T07:54:53.328Z,2.42
2022-11-08T07:55:53.352Z,2.48
2022-11-08T07:56:53.445Z,2.58
2022-11-08T07:57:53.449Z,2.69
2022-11-08T07:58:53.498Z,2.75
2022-11-08T07:59:53.561Z,2.89
2022-11-08T08:00:53.588Z,2.97
2022-11-08T08:01:53.708Z,3.09
2022-11-08T08:02:53.710Z,3.12
2022-11-08T08:03:53.723Z,3.27
2022-11-08T08:04:53.769Z,3.33
2022-11-08T08:05:59.524Z,3.44
2022-11-08T08:06:54.827Z,3.56
2022-11-08T08:07:53.892Z,3.62
2022-11-08T08:08:53.932Z,3.78
2022-11-08T08:09:53.976Z,3.90
2022-11-08T08:10:53.990Z,4.00
2022-11-08T08:11:54.049Z,4.10
2022-11-08T08:12:54.067Z,4.18
2022-11-08T08:13:54.111Z,4.28
2022-11-08T08:14:54.149Z,4.34
2022-11-08T08:15:54.205Z,4.39
2022-11-08T08:16:54.192Z,4.43
2022-11-08T08:17:54.224Z,4.49
2022-11-08T08:18:56.329Z,4.59
2022-11-08T08:19:54.291Z,4.66
2022-11-08T08:20:54.306Z,4.74
2022-11-08T08:21:54.355Z,4.78
2022-11-08T08:22:54.384Z,4.85
2022-11-08T08:23:54.405Z,4.94
2022-11-08T08:24:54.433Z,5.01
2022-11-08T08:25:54.465Z,5.04
2022-11-08T08:26:54.465Z,5.12
2022-11-08T08:27:54.497Z,5.21
2022-11-08T08:28:54.509Z,5.29
2022-11-08T08:29:54.596Z,5.34
2022-11-08T08:30:54.565Z,5.41
2022-11-08T08:31:54.604Z,5.50
2022-11-08T08:33:21.991Z,5.57
2022-11-08T08:33:55.616Z,5.62
2022-11-08T08:34:54.660Z,5.70
2022-11-08T08:35:54.651Z,5.82
2022-11-08T08:36:54.658Z,5.88
2022-11-08T08:37:54.679Z,5.94
2022-11-08T08:38:54.688Z,6.03
2022-11-08T08:39:54.748Z,6.12
2022-11-08T08:40:54.717Z,6.19
2022-11-08T08:41:54.763Z,6.31
2022-11-08T08:42:54.751Z,6.38
2022-11-08T08:43:54.771Z,6.49
2022-11-08T08:44:54.798Z,6.49
2022-11-08T08:45:54.779Z,6.53
2022-11-08T08:46:54.790Z,6.63
2022-11-08T08:47:54.813Z,6.68
2022-11-08T08:48:54.810Z,6.75
2022-11-08T08:49:54.836Z,6.79
2022-11-08T08:50:54.833Z,6.85
2022-11-08T08:51:54.831Z,6.88
2022-11-08T08:52:54.830Z,7.01
2022-11-08T08:53:54.839Z,7.15
2022-11-08T08:54:54.848Z,7.26
2022-11-08T08:55:54.848Z,7.37
2022-11-08T08:56:54.841Z,7.50
2022-11-08T08:57:54.861Z,7.54
2022-11-08T09:01:55.841Z,7.87
2022-11-08T09:02:54.823Z,8.02
2022-11-08T09:03:54.814Z,8.04
2022-11-08T09:04:54.815Z,8.10
2022-11-08T09:05:54.824Z,8.06
2022-11-08T09:06:54.849Z,8.09
2022-11-08T09:07:54.812Z,8.14
2022-11-08T09:08:54.796Z,8.23
2022-11-08T09:09:54.795Z,8.29
2022-11-08T09:10:54.801Z,8.37
2022-11-08T09:11:54.786Z,8.34
2022-11-08T09:12:54.776Z,8.38
2022-11-08T09:13:54.767Z,8.44
2022-11-08T09:14:54.754Z,8.47
2022-11-08T09:15:54.759Z,8.50
2022-11-08T09:16:54.725Z,8.59
2022-11-08T09:17:54.717Z,8.62
2022-11-08T09:18:54.761Z,8.71
2022-11-08T09:19:57.266Z,8.81
2022-11-08T09:20:54.687Z,8.83
2022-11-08T09:21:54.716Z,8.86
2022-11-08T09:22:54.641Z,8.85
2022-11-08T09:23:54.644Z,8.86
2022-11-08T09:24:54.618Z,8.88
2022-11-08T09:25:54.588Z,8.89
2022-11-08T09:26:54.567Z,8.96
2022-11-08T09:27:54.562Z,9.03
2022-11-08T09:28:54.520Z,9.04
2022-11-08T09:29:54.521Z,9.04
2022-11-08T09:30:54.502Z,9.06
2022-11-08T09:31:54.494Z,9.11
2022-11-08T09:33:00.894Z,9.09
2022-11-08T09:33:55.500Z,9.14
2022-11-08T09:34:54.448Z,9.18
2022-11-08T09:35:54.424Z,9.14
2022-11-08T09:36:54.395Z,9.18
2022-11-08T09:37:54.394Z,9.27
2022-11-08T09:38:54.362Z,9.33
2022-11-08T09:39:54.350Z,9.40
2022-11-08T09:40:54.324Z,9.40
2022-11-08T09:41:55.741Z,9.44
2022-11-08T09:42:54.274Z,9.51
2022-11-08T09:43:54.256Z,9.57
2022-11-08T09:44:54.223Z,9.65
2022-11-08T09:45:54.215Z,9.72
2022-11-08T09:46:54.175Z,9.70
2022-11-08T09:47:54.155Z,9.80
2022-11-08T09:48:54.126Z,9.84
2022-11-08T09:49:54.106Z,9.87
2022-11-08T09:50:54.138Z,9.91
2022-11-08T09:51:54.065Z,9.94
2022-11-08T09:52:54.029Z,9.98
2022-11-08T09:53:54.011Z,9.99
2022-11-08T09:54:54.014Z,9.96
2022-11-08T09:55:53.957Z,10.06
2022-11-08T09:56:53.938Z,10.12
2022-11-08T09:57:53.906Z,10.14
2022-11-08T09:58:53.869Z,10.08
2022-11-08T09:59:53.851Z,10.20
2022-11-08T10:00:53.814Z,10.23
2022-11-08T10:01:53.857Z,10.34
2022-11-08T10:02:53.760Z,10.42
2022-11-08T10:03:53.730Z,10.46
2022-11-08T10:04:53.690Z,10.48
2022-11-08T10:05:53.659Z,10.52
2022-11-08T10:06:58.067Z,10.57
2022-11-08T10:07:54.591Z,10.61
2022-11-08T10:08:53.551Z,10.60
2022-11-08T10:09:53.530Z,10.67
2022-11-08T10:10:53.491Z,10.72
2022-11-08T10:11:53.481Z,10.82
2022-11-08T10:12:53.445Z,10.85
2022-11-08T10:13:53.399Z,10.91
2022-11-08T10:14:54.629Z,10.93
2022-11-08T10:15:53.333Z,10.97
2022-11-08T10:16:53.293Z,11.05
2022-11-08T10:17:53.253Z,11.04
2022-11-08T10:18:53.203Z,11.15
2022-11-08T10:19:53.181Z,11.19
2022-11-08T10:20:53.125Z,11.18
2022-11-08T10:21:53.112Z,11.13
2022-11-08T10:22:53.158Z,11.16
2022-11-08T10:23:53.028Z,11.13
2022-11-08T10:24:52.986Z,11.16
2022-11-08T10:25:52.964Z,11.15
2022-11-08T10:26:52.942Z,11.16
2022-11-08T10:27:52.887Z,11.20
2022-11-08T10:28:52.843Z,11.30
2022-11-08T10:29:52.808Z,11.33
2022-11-08T10:30:52.770Z,11.37
2022-11-08T10:31:52.747Z,11.38
2022-11-08T10:32:52.686Z,11.45
2022-11-08T10:33:52.647Z,11.43
2022-11-08T10:34:52.604Z,11.38
2022-11-08T10:35:56.412Z,11.34
2022-11-08T10:36:53.536Z,11.31
2022-11-08T10:37:52.495Z,11.31
2022-11-08T10:38:52.439Z,11.30
2022-11-08T10:39:52.410Z,11.28
2022-11-08T10:40:52.360Z,11.22
2022-11-08T10:41:52.415Z,11.20
2022-11-08T10:42:52.317Z,11.19
2022-11-08T10:43:52.267Z,11.19
2022-11-08T10:44:52.210Z,11.19
2022-11-08T10:45:52.171Z,11.23
2022-11-08T10:46:52.126Z,11.23
2022-11-08T10:47:52.096Z,11.13
2022-11-08T10:48:52.031Z,11.08
2022-11-08T10:49:51.993Z,11.08
2022-11-08T10:50:51.967Z,11.11
2022-11-08T10:51:51.920Z,11.04
2022-11-08T10:52:51.857Z,11.04
2022-11-08T10:53:51.818Z,11.04
2022-11-08T10:54:51.768Z,11.01
2022-11-08T10:55:51.715Z,11.00
2022-11-08T10:56:51.696Z,10.98
2022-11-08T10:57:51.653Z,11.05
2022-11-08T10:58:51.595Z,10.94
2022-11-08T10:59:51.566Z,11.08
2022-11-08T11:00:51.525Z,11.03
2022-11-08T11:01:51.508Z,11.00
2022-11-08T11:02:51.450Z,11.00
2022-11-08T11:03:51.407Z,10.97
2022-11-08T11:04:51.348Z,10.90
2022-11-08T11:05:51.317Z,10.93
2022-11-08T11:06:51.308Z,10.91
2022-11-08T11:07:51.248Z,10.94
2022-11-08T11:08:51.189Z,10.94
2022-11-08T11:09:51.162Z,10.98
2022-11-08T11:10:51.108Z,10.98
2022-11-08T11:11:51.070Z,11.05
2022-11-08T11:12:51.065Z,11.18
2022-11-08T11:13:50.990Z,11.11
2022-11-08T11:14:50.950Z,11.11
2022-11-08T11:15:50.940Z,11.13
2022-11-08T11:16:50.874Z,11.15
2022-11-08T11:17:50.843Z,11.23
2022-11-08T11:18:50.784Z,11.22
2022-11-08T11:19:50.747Z,11.20
2022-11-08T11:20:50.685Z,11.25
2022-11-08T11:21:50.641Z,11.27
2022-11-08T11:22:50.610Z,11.30
2022-11-08T11:23:50.550Z,11.34
2022-11-08T11:24:50.498Z,11.36
2022-11-08T11:25:50.468Z,11.38
2022-11-08T11:26:50.415Z,11.43
2022-11-08T11:27:50.384Z,11.36
2022-11-08T11:28:50.335Z,11.36
2022-11-08T11:29:50.303Z,11.27
2022-11-08T11:30:50.246Z,11.30
2022-11-08T11:31:50.214Z,11.27
2022-11-08T11:32:50.205Z,11.34
2022-11-08T11:33:50.135Z,11.38
2022-11-08T11:34:50.077Z,11.36
2022-11-08T11:35:50.037Z,11.40
2022-11-08T11:36:49.989Z,11.46
2022-11-08T11:37:49.947Z,11.43
2022-11-08T11:38:49.909Z,11.45
2022-11-08T11:39:49.868Z,11.48
2022-11-08T11:40:49.841Z,11.43
2022-11-08T11:41:49.775Z,11.54
2022-11-08T11:42:49.747Z,11.52
2022-11-08T11:43:49.711Z,11.51
2022-11-08T11:44:49.640Z,11.54
2022-11-08T11:45:49.610Z,11.54
2022-11-08T11:46:49.550Z,11.58
2022-11-08T11:47:49.510Z,11.52
2022-11-08T11:48:49.513Z,11.52
2022-11-08T11:49:49.431Z,11.49
2022-11-08T11:50:49.472Z,11.55
2022-11-08T11:51:49.429Z,11.52
2022-11-08T11:52:49.291Z,11.46
2022-11-08T11:53:49.290Z,11.54
2022-11-08T11:54:49.210Z,11.54
2022-11-08T11:55:49.174Z,11.56
2022-11-08T11:56:49.140Z,11.48
2022-11-08T11:57:49.108Z,11.49
2022-11-08T11:58:49.063Z,11.51
2022-11-08T11:59:49.021Z,11.54
2022-11-08T12:00:48.983Z,11.56
2022-11-08T12:01:49.010Z,11.58
2022-11-08T12:02:48.924Z,11.61
2022-11-08T12:03:48.885Z,11.70
2022-11-08T12:04:48.823Z,11.71
2022-11-08T12:05:48.784Z,11.71
2022-11-08T12:06:48.861Z,11.71
2022-11-08T12:07:48.706Z,11.76
2022-11-08T12:08:48.669Z,11.77
2022-11-08T12:09:48.615Z,11.80
2022-11-08T12:10:48.558Z,11.87
2022-11-08T12:11:48.529Z,11.87
2022-11-08T12:12:48.467Z,11.88
2022-11-08T12:13:53.936Z,11.95
2022-11-08T12:14:49.380Z,11.87
2022-11-08T12:15:48.332Z,11.89
2022-11-08T12:16:48.279Z,11.85
2022-11-08T12:17:48.238Z,11.85
2022-11-08T12:18:48.342Z,11.84
2022-11-08T12:19:48.173Z,11.84
2022-11-08T12:20:48.102Z,11.89
2022-11-08T12:21:48.059Z,11.89
2022-11-08T12:22:48.020Z,11.93
2022-11-08T12:23:47.989Z,11.93
2022-11-08T12:24:47.921Z,12.03
2022-11-08T12:25:47.866Z,11.91
2022-11-08T12:26:47.834Z,11.95
2022-11-08T12:27:47.790Z,11.91
2022-11-08T12:28:47.739Z,11.95
2022-11-08T12:29:47.693Z,11.96
2022-11-08T12:30:47.651Z,11.97
2022-11-08T12:31:47.602Z,11.96
2022-11-08T12:32:47.560Z,11.95
2022-11-08T12:33:47.508Z,11.95
2022-11-08T12:34:47.476Z,11.97
2022-11-08T12:35:47.411Z,11.97
2022-11-08T12:36:47.362Z,11.95
2022-11-08T12:37:47.318Z,12.07
2022-11-08T12:38:47.278Z,12.08
2022-11-08T12:39:47.236Z,12.11
2022-11-08T12:40:47.175Z,12.08
2022-11-08T12:41:47.127Z,12.17
2022-11-08T12:42:47.178Z,12.22
2022-11-08T12:43:47.067Z,12.14
2022-11-08T12:44:46.977Z,12.10
2022-11-08T12:45:46.958Z,12.05
2022-11-08T12:46:46.879Z,12.11
2022-11-08T12:47:46.826Z,12.05
2022-11-08T12:48:46.780Z,12.05
2022-11-08T12:49:46.722Z,12.10
2022-11-08T12:50:46.681Z,12.08
2022-11-08T12:51:46.609Z,12.08
2022-11-08T12:52:46.583Z,12.07
2022-11-08T12:53:46.523Z,12.11
2022-11-08T12:54:46.481Z,12.07
2022-11-08T12:55:46.442Z,12.04
2022-11-08T12:56:46.388Z,12.04
2022-11-08T12:57:46.330Z,12.05
2022-11-08T12:58:46.292Z,12.08
2022-11-08T12:59:46.244Z,12.10
2022-11-08T13:00:46.245Z,12.14
2022-11-08T13:01:46.147Z,12.13
2022-11-08T13:02:46.104Z,12.11
2022-11-08T13:03:46.044Z,12.18
2022-11-08T13:04:45.994Z,12.22
2022-11-08T13:05:45.958Z,12.23
2022-11-08T13:06:45.934Z,12.28
2022-11-08T13:07:45.857Z,12.26
2022-11-08T13:08:45.787Z,12.25
2022-11-08T13:09:45.735Z,12.22
2022-11-08T13:10:45.697Z,12.21
2022-11-08T13:11:45.624Z,12.26
2022-11-08T13:12:45.575Z,12.28
2022-11-08T13:13:45.515Z,12.26
2022-11-08T13:14:45.477Z,12.25